Creola, Ohio
Current Conditions -  °F | °C
As of 9:55 PM on Wednesday 26 Nov 2014 (Local Time) from KUNI Reporting Station
Overcast Overcast  
Wind Chill: 32°   Ceiling: 3000
Heat Index: 32°   Visibility: 10mi
Dew Point: 28°   Wind: 0mph
Humidity: 85%   Direction: NA
Pressure: 30.02"   Gusts: NA
Location:  39.32°N, 82.47°W
Report Text: KUNI 270255Z AUTO 00000KT 10SM BKN030 OVC046 00/M02 A3002 RMK AO2 T10021024
Loading
Personal Weather Stations






























Interactive Weather Map New forecast layout! Learn more

10-Day Weather Forecast

Advertisements
Track Severe Weather on mobile